createdAt,value
2023-02-08T00:00:53.658Z,996.88
2023-02-08T00:01:53.623Z,996.78
2023-02-08T00:02:53.677Z,996.83
2023-02-08T00:03:53.631Z,996.82
2023-02-08T00:04:53.583Z,996.75
2023-02-08T00:05:53.575Z,996.80
2023-02-08T00:06:53.554Z,996.81
2023-02-08T00:07:53.545Z,996.75
2023-02-08T00:08:53.534Z,996.75
2023-02-08T00:09:53.514Z,996.71
2023-02-08T00:10:53.497Z,996.74
2023-02-08T00:11:53.489Z,996.79
2023-02-08T00:12:53.480Z,996.69
2023-02-08T00:13:53.469Z,996.63
2023-02-08T00:14:53.450Z,996.65
2023-02-08T00:15:53.494Z,996.63
2023-02-08T00:16:53.445Z,996.65
2023-02-08T00:17:53.413Z,996.60
2023-02-08T00:18:53.403Z,996.60
2023-02-08T00:19:53.386Z,996.64
2023-02-08T00:20:53.378Z,996.60
2023-02-08T00:21:53.367Z,996.55
2023-02-08T00:22:53.554Z,996.56
2023-02-08T00:23:53.329Z,996.54
2023-02-08T00:24:53.318Z,996.60
2023-02-08T00:25:53.315Z,996.60
2023-02-08T00:26:53.291Z,996.58
2023-02-08T00:27:53.329Z,996.56
2023-02-08T00:28:53.261Z,996.59
2023-02-08T00:29:53.252Z,996.63
2023-02-08T00:30:53.297Z,996.61
2023-02-08T00:31:53.337Z,996.53
2023-02-08T00:32:53.236Z,996.54
2023-02-08T00:33:53.344Z,996.49
2023-02-08T00:34:53.180Z,996.53
2023-02-08T00:35:53.167Z,996.50
2023-02-08T00:36:53.501Z,996.43
2023-02-08T00:37:53.139Z,996.50
2023-02-08T00:38:53.131Z,996.49
2023-02-08T00:39:53.115Z,996.52
2023-02-08T00:40:53.099Z,996.54
2023-02-08T00:41:53.091Z,996.52
2023-02-08T00:42:53.082Z,996.53
2023-02-08T00:43:53.066Z,996.53
2023-02-08T00:44:53.051Z,996.45
2023-02-08T00:45:53.038Z,996.47
2023-02-08T00:46:53.057Z,996.49
2023-02-08T00:47:53.013Z,996.44
2023-02-08T00:48:53.016Z,996.54
2023-02-08T00:49:52.980Z,996.45
2023-02-08T00:50:52.975Z,996.45
2023-02-08T00:51:52.961Z,996.42
2023-02-08T00:52:53.041Z,996.46
2023-02-08T00:53:52.928Z,996.47
2023-02-08T00:54:52.924Z,996.52
2023-02-08T00:55:52.910Z,996.48
2023-02-08T00:56:52.893Z,996.39
2023-02-08T00:57:52.873Z,996.41
2023-02-08T00:58:52.862Z,996.39
2023-02-08T00:59:52.842Z,996.44
2023-02-08T01:00:52.882Z,996.44
2023-02-08T01:01:52.839Z,996.47
2023-02-08T01:02:52.805Z,996.48
2023-02-08T01:03:52.793Z,996.50
2023-02-08T01:04:52.807Z,996.57
2023-02-08T01:05:52.773Z,996.52
2023-02-08T01:06:52.760Z,996.50
2023-02-08T01:07:52.749Z,996.49
2023-02-08T01:08:52.735Z,996.47
2023-02-08T01:09:52.725Z,996.51
2023-02-08T01:10:52.709Z,996.47
2023-02-08T01:11:52.743Z,996.46
2023-02-08T01:12:52.684Z,996.52
2023-02-08T01:13:52.664Z,996.49
2023-02-08T01:14:52.646Z,996.44
2023-02-08T01:15:52.716Z,996.47
2023-02-08T01:16:52.629Z,996.46
2023-02-08T01:17:52.614Z,996.52
2023-02-08T01:18:52.597Z,996.50
2023-02-08T01:19:52.583Z,996.59
2023-02-08T01:20:52.595Z,996.51
2023-02-08T01:21:52.562Z,996.58
2023-02-08T01:22:52.551Z,996.53
2023-02-08T01:23:52.532Z,996.52
2023-02-08T01:24:52.529Z,996.52
2023-02-08T01:25:52.509Z,996.49
2023-02-08T01:26:52.493Z,996.60
2023-02-08T01:27:52.490Z,996.50
2023-02-08T01:28:52.466Z,996.45
2023-02-08T01:29:52.456Z,996.43
2023-02-08T01:30:52.474Z,996.45
2023-02-08T01:31:52.477Z,996.40
2023-02-08T01:32:52.422Z,996.47
2023-02-08T01:33:52.399Z,996.42
2023-02-08T01:34:52.401Z,996.48
2023-02-08T01:35:52.376Z,996.39
2023-02-08T01:36:52.389Z,996.39
2023-02-08T01:37:52.345Z,996.40
2023-02-08T01:38:52.347Z,996.33
2023-02-08T01:39:52.327Z,996.38
2023-02-08T01:40:52.305Z,996.30
2023-02-08T01:41:52.292Z,996.29
2023-02-08T01:42:52.279Z,996.26
2023-02-08T01:43:52.264Z,996.27
2023-02-08T01:44:52.261Z,996.25
2023-02-08T01:45:52.303Z,996.23
2023-02-08T01:46:52.247Z,996.21
2023-02-08T01:47:52.223Z,996.17
2023-02-08T01:48:52.209Z,996.14
2023-02-08T01:49:52.196Z,996.28
2023-02-08T01:50:52.180Z,996.19
2023-02-08T01:51:52.173Z,996.14
2023-02-08T01:52:52.177Z,996.18
2023-02-08T01:53:52.136Z,996.15
2023-02-08T01:54:52.121Z,996.12
2023-02-08T01:55:52.107Z,996.18
2023-02-08T01:56:52.096Z,996.11
2023-02-08T01:57:52.090Z,996.17
2023-02-08T01:58:52.080Z,996.08
2023-02-08T01:59:52.070Z,996.08
2023-02-08T02:00:52.082Z,996.07
2023-02-08T02:01:52.032Z,995.99
2023-02-08T02:02:52.020Z,996.08
2023-02-08T02:03:52.006Z,996.16
2023-02-08T02:04:51.990Z,996.07
2023-02-08T02:05:51.975Z,996.12
2023-02-08T02:06:51.962Z,996.08
2023-02-08T02:07:51.958Z,996.10
2023-02-08T02:08:51.957Z,996.12
2023-02-08T02:09:51.929Z,996.09
2023-02-08T02:10:51.920Z,996.09
2023-02-08T02:11:51.900Z,996.15
2023-02-08T02:12:51.890Z,996.08
2023-02-08T02:13:51.874Z,996.11
2023-02-08T02:14:51.867Z,996.12
2023-02-08T02:15:51.852Z,996.01
2023-02-08T02:16:51.836Z,996.03
2023-02-08T02:17:51.822Z,996.01
2023-02-08T02:18:51.804Z,996.07
2023-02-08T02:19:51.797Z,996.08
2023-02-08T02:20:51.780Z,996.05
2023-02-08T02:21:51.765Z,996.02
2023-02-08T02:22:51.842Z,996.02
2023-02-08T02:23:51.736Z,995.99
2023-02-08T02:24:51.750Z,996.05
2023-02-08T02:25:51.715Z,996.10
2023-02-08T02:26:51.706Z,996.03
2023-02-08T02:27:51.903Z,996.01
2023-02-08T02:28:51.678Z,996.06
2023-02-08T02:29:51.665Z,995.97
2023-02-08T02:30:51.732Z,995.99
2023-02-08T02:31:51.688Z,996.02
2023-02-08T02:32:51.622Z,996.03
2023-02-08T02:33:51.613Z,996.04
2023-02-08T02:34:51.597Z,995.99
2023-02-08T02:35:51.588Z,996.01
2023-02-08T02:36:51.770Z,996.10
2023-02-08T02:37:51.808Z,996.01
2023-02-08T02:38:51.545Z,996.04
2023-02-08T02:39:51.534Z,995.99
2023-02-08T02:40:51.600Z,996.00
2023-02-08T02:41:51.501Z,996.02
2023-02-08T02:42:51.494Z,995.98
2023-02-08T02:43:51.474Z,995.98
2023-02-08T02:44:51.467Z,995.99
2023-02-08T02:45:51.578Z,996.02
2023-02-08T02:46:51.451Z,996.08
2023-02-08T02:47:51.432Z,996.00
2023-02-08T02:48:51.418Z,996.02
2023-02-08T02:49:51.407Z,996.04
2023-02-08T02:50:51.392Z,996.08
2023-02-08T02:51:51.380Z,996.02
2023-02-08T02:52:51.371Z,996.06
2023-02-08T02:53:51.367Z,995.95
2023-02-08T02:54:51.344Z,996.12
2023-02-08T02:55:51.337Z,996.09
2023-02-08T02:56:51.342Z,996.16
2023-02-08T02:57:51.301Z,996.11
2023-02-08T02:58:51.311Z,996.11
2023-02-08T02:59:51.277Z,996.11
2023-02-08T03:00:51.310Z,996.12
2023-02-08T03:01:51.249Z,996.10
2023-02-08T03:02:51.536Z,996.12
2023-02-08T03:03:51.237Z,996.04
2023-02-08T03:04:51.206Z,996.06
2023-02-08T03:05:51.196Z,996.10
2023-02-08T03:06:51.186Z,996.09
2023-02-08T03:07:51.178Z,996.15
2023-02-08T03:08:51.162Z,996.01
2023-02-08T03:09:51.146Z,996.00
2023-02-08T03:10:51.138Z,996.13
2023-02-08T03:11:51.119Z,996.09
2023-02-08T03:12:51.234Z,996.02
2023-02-08T03:13:51.097Z,996.05
2023-02-08T03:14:51.084Z,996.02
2023-02-08T03:15:51.074Z,995.98
2023-02-08T03:16:51.096Z,996.06
2023-02-08T03:17:51.040Z,995.99
2023-02-08T03:18:51.026Z,996.05
2023-02-08T03:19:51.022Z,995.99
2023-02-08T03:20:50.999Z,995.98
2023-02-08T03:21:50.996Z,995.95
2023-02-08T03:22:50.981Z,995.96
2023-02-08T03:23:50.967Z,995.97
2023-02-08T03:24:50.954Z,995.98
2023-02-08T03:25:50.939Z,995.97
2023-02-08T03:26:50.925Z,995.91
2023-02-08T03:27:50.939Z,995.90
2023-02-08T03:28:50.938Z,995.92
2023-02-08T03:29:50.878Z,995.86
2023-02-08T03:30:50.937Z,995.96
2023-02-08T03:31:50.941Z,995.95
2023-02-08T03:32:51.093Z,995.90
2023-02-08T03:33:50.837Z,995.93
2023-02-08T03:34:50.821Z,995.91
2023-02-08T03:35:50.806Z,995.93
2023-02-08T03:36:50.795Z,995.90
2023-02-08T03:37:50.778Z,995.92
2023-02-08T03:38:50.873Z,995.93
2023-02-08T03:39:50.750Z,995.89
2023-02-08T03:40:50.746Z,995.86
2023-02-08T03:41:50.722Z,995.86
2023-02-08T03:42:50.714Z,995.85
2023-02-08T03:43:50.701Z,995.89
2023-02-08T03:44:50.713Z,995.87
2023-02-08T03:45:50.692Z,995.87
2023-02-08T03:46:50.669Z,995.90
2023-02-08T03:47:50.652Z,995.87
2023-02-08T03:48:50.642Z,995.87
2023-02-08T03:49:50.627Z,995.94
2023-02-08T03:50:50.613Z,995.91
2023-02-08T03:51:50.600Z,995.88
2023-02-08T03:52:50.589Z,995.91
2023-02-08T03:53:50.572Z,995.89
2023-02-08T03:54:50.557Z,995.93
2023-02-08T03:55:50.539Z,995.89
2023-02-08T03:56:50.534Z,995.81
2023-02-08T03:57:50.516Z,995.81
2023-02-08T03:58:50.499Z,995.85
2023-02-08T03:59:50.485Z,995.83
2023-02-08T04:00:50.500Z,995.93
2023-02-08T04:01:50.464Z,995.88
2023-02-08T04:02:50.669Z,995.91
2023-02-08T04:03:50.436Z,995.94
2023-02-08T04:04:50.626Z,995.86
2023-02-08T04:05:50.415Z,995.93
2023-02-08T04:06:50.394Z,995.90
2023-02-08T04:07:50.378Z,995.83
2023-02-08T04:08:50.371Z,995.89
2023-02-08T04:09:50.365Z,995.91
2023-02-08T04:10:50.355Z,995.83
2023-02-08T04:11:50.341Z,995.82
2023-02-08T04:12:50.321Z,995.88
2023-02-08T04:13:50.310Z,996.00
2023-02-08T04:14:50.295Z,995.95
2023-02-08T04:15:50.340Z,995.90
2023-02-08T04:16:50.288Z,995.93
2023-02-08T04:17:50.247Z,996.00
2023-02-08T04:18:50.238Z,995.89
2023-02-08T04:19:50.224Z,996.00
2023-02-08T04:20:50.209Z,995.93
2023-02-08T04:21:50.199Z,995.81
2023-02-08T04:22:50.184Z,995.98
2023-02-08T04:23:50.172Z,996.00
2023-02-08T04:24:50.160Z,996.01
2023-02-08T04:25:50.154Z,995.98
2023-02-08T04:26:50.135Z,995.97
2023-02-08T04:27:50.170Z,996.04
2023-02-08T04:28:50.116Z,995.99
2023-02-08T04:29:50.106Z,995.84
2023-02-08T04:30:50.185Z,995.87
2023-02-08T04:31:50.115Z,995.92
2023-02-08T04:32:50.088Z,995.94
2023-02-08T04:33:50.046Z,995.94
2023-02-08T04:34:50.032Z,995.91
2023-02-08T04:35:50.016Z,995.93
2023-02-08T04:36:50.014Z,996.05
2023-02-08T04:37:50.246Z,995.91
2023-02-08T04:38:49.988Z,995.95
2023-02-08T04:39:49.970Z,995.96
2023-02-08T04:40:49.970Z,995.97
2023-02-08T04:41:49.949Z,995.96
2023-02-08T04:42:49.932Z,995.89
2023-02-08T04:43:49.917Z,995.94
2023-02-08T04:44:49.911Z,995.88
2023-02-08T04:45:49.896Z,995.95
2023-02-08T04:46:49.884Z,995.91
2023-02-08T04:47:49.866Z,995.89
2023-02-08T04:48:50.080Z,995.89
2023-02-08T04:49:49.845Z,995.82
2023-02-08T04:50:49.838Z,995.84
2023-02-08T04:51:49.815Z,995.83
2023-02-08T04:52:49.804Z,995.73
2023-02-08T04:53:49.789Z,995.74
2023-02-08T04:54:49.792Z,995.74
2023-02-08T04:55:49.762Z,995.71
2023-02-08T04:56:49.751Z,995.71
2023-02-08T04:57:49.743Z,995.74
2023-02-08T04:58:49.722Z,995.58
2023-02-08T04:59:49.708Z,995.65
2023-02-08T05:00:49.696Z,995.64
2023-02-08T05:01:49.718Z,995.64
2023-02-08T05:02:49.672Z,995.61
2023-02-08T05:03:49.660Z,995.68
2023-02-08T05:04:49.686Z,995.58
2023-02-08T05:05:49.633Z,995.58
2023-02-08T05:06:49.623Z,995.69
2023-02-08T05:07:49.607Z,995.65
2023-02-08T05:08:49.596Z,995.70
2023-02-08T05:09:49.587Z,995.58
2023-02-08T05:10:49.569Z,995.69
2023-02-08T05:11:49.559Z,995.68
2023-02-08T05:12:49.539Z,995.64
2023-02-08T05:13:49.523Z,995.61
2023-02-08T05:14:49.507Z,995.57
2023-02-08T05:15:49.514Z,995.57
2023-02-08T05:16:49.478Z,995.64
2023-02-08T05:17:49.471Z,995.65
2023-02-08T05:18:49.458Z,995.58
2023-02-08T05:19:49.442Z,995.57
2023-02-08T05:20:49.457Z,995.54
2023-02-08T05:21:49.428Z,995.54
2023-02-08T05:22:49.410Z,995.55
2023-02-08T05:23:49.397Z,995.52
2023-02-08T05:24:49.391Z,995.62
2023-02-08T05:25:49.370Z,995.51
2023-02-08T05:26:49.357Z,995.65
2023-02-08T05:27:49.483Z,995.60
2023-02-08T05:28:49.333Z,995.59
2023-02-08T05:29:49.325Z,995.62
2023-02-08T05:30:49.377Z,995.56
2023-02-08T05:31:49.488Z,995.60
2023-02-08T05:32:49.289Z,995.62
2023-02-08T05:33:49.281Z,995.65
2023-02-08T05:34:49.256Z,995.65
2023-02-08T05:35:49.254Z,995.63
2023-02-08T05:36:49.242Z,995.62
2023-02-08T05:37:49.208Z,995.62
2023-02-08T05:38:49.194Z,995.66
2023-02-08T05:39:49.182Z,995.64
2023-02-08T05:40:49.168Z,995.67
2023-02-08T05:41:49.156Z,995.65
2023-02-08T05:42:49.133Z,995.72
2023-02-08T05:43:49.121Z,995.68
2023-02-08T05:44:49.109Z,995.64
2023-02-08T05:45:49.098Z,995.65
2023-02-08T05:46:49.119Z,995.76
2023-02-08T05:47:49.070Z,995.64
2023-02-08T05:48:49.055Z,995.73
2023-02-08T05:49:49.050Z,995.76
2023-02-08T05:50:49.034Z,995.84
2023-02-08T05:51:49.017Z,995.81
2023-02-08T05:52:49.029Z,995.83
2023-02-08T05:53:48.987Z,995.79
2023-02-08T05:54:48.975Z,995.76
2023-02-08T05:55:48.960Z,995.81
2023-02-08T05:56:48.942Z,995.85
2023-02-08T05:57:49.059Z,995.85
2023-02-08T05:58:48.926Z,995.81
2023-02-08T05:59:48.904Z,995.82
2023-02-08T06:00:48.896Z,995.82
2023-02-08T06:01:48.886Z,995.81
2023-02-08T06:02:48.935Z,995.79
2023-02-08T06:03:48.896Z,995.84
2023-02-08T06:04:48.845Z,995.80
2023-02-08T06:05:49.083Z,995.85
2023-02-08T06:06:48.829Z,995.77
2023-02-08T06:07:48.804Z,995.88
2023-02-08T06:08:48.810Z,995.83
2023-02-08T06:09:48.765Z,995.85
2023-02-08T06:10:48.758Z,995.85
2023-02-08T06:11:48.746Z,995.90
2023-02-08T06:12:48.734Z,995.85
2023-02-08T06:13:48.724Z,995.88
2023-02-08T06:14:48.710Z,995.91
2023-02-08T06:15:48.697Z,995.94
2023-02-08T06:16:48.757Z,995.95
2023-02-08T06:17:48.668Z,995.91
2023-02-08T06:18:48.657Z,995.91
2023-02-08T06:19:48.638Z,995.86
2023-02-08T06:20:48.621Z,995.92
2023-02-08T06:21:48.614Z,995.96
2023-02-08T06:22:48.614Z,995.93
2023-02-08T06:23:48.586Z,995.93
2023-02-08T06:24:48.622Z,995.91
2023-02-08T06:25:48.561Z,995.94
2023-02-08T06:26:48.553Z,995.91
2023-02-08T06:27:48.585Z,995.96
2023-02-08T06:28:48.520Z,995.86
2023-02-08T06:29:48.512Z,995.88
2023-02-08T06:30:48.499Z,995.90
2023-02-08T06:31:48.629Z,995.90
2023-02-08T06:32:48.467Z,995.88
2023-02-08T06:33:48.456Z,995.89
2023-02-08T06:34:48.438Z,995.85
2023-02-08T06:35:48.445Z,995.91
2023-02-08T06:36:48.414Z,995.90
2023-02-08T06:37:48.397Z,995.92
2023-02-08T06:38:50.996Z,995.85
2023-02-08T06:39:48.371Z,995.89
2023-02-08T06:40:48.381Z,995.92
2023-02-08T06:41:48.356Z,995.93
2023-02-08T06:42:48.352Z,995.91
2023-02-08T06:43:48.332Z,995.91
2023-02-08T06:44:54.761Z,995.96
2023-02-08T06:45:49.386Z,995.93
2023-02-08T06:46:48.277Z,995.91
2023-02-08T06:47:48.291Z,995.93
2023-02-08T06:48:48.251Z,995.99
2023-02-08T06:49:48.253Z,995.98
2023-02-08T06:50:48.230Z,995.96
2023-02-08T06:51:48.216Z,995.95
2023-02-08T06:52:48.206Z,995.99
2023-02-08T06:53:48.192Z,995.90
2023-02-08T06:54:48.200Z,995.96
2023-02-08T06:55:48.167Z,995.97
2023-02-08T06:56:48.200Z,995.85
2023-02-08T06:57:48.137Z,995.91
2023-02-08T06:58:48.121Z,995.85
2023-02-08T06:59:48.117Z,995.90
2023-02-08T07:00:48.196Z,995.92
2023-02-08T07:01:48.100Z,995.94
2023-02-08T07:02:48.074Z,996.02
2023-02-08T07:03:48.060Z,996.00
2023-02-08T07:04:48.076Z,995.98
2023-02-08T07:06:03.753Z,995.98
2023-02-08T07:06:49.054Z,996.01
2023-02-08T07:07:48.009Z,996.03
2023-02-08T07:08:47.993Z,995.99
2023-02-08T07:09:48.079Z,995.98
2023-02-08T07:10:48.223Z,995.90
2023-02-08T07:11:47.956Z,996.00
2023-02-08T07:12:47.963Z,995.94
2023-02-08T07:13:47.931Z,995.93
2023-02-08T07:14:47.916Z,995.92
2023-02-08T07:15:47.901Z,995.94
2023-02-08T07:16:47.915Z,995.90
2023-02-08T07:17:47.874Z,995.90
2023-02-08T07:18:47.858Z,995.87
2023-02-08T07:19:47.896Z,995.89
2023-02-08T07:20:47.836Z,995.91
2023-02-08T07:21:47.824Z,995.88
2023-02-08T07:22:47.804Z,995.91
2023-02-08T07:23:47.797Z,995.93
2023-02-08T07:24:47.786Z,996.00
2023-02-08T07:25:47.769Z,995.94
2023-02-08T07:26:47.755Z,995.96
2023-02-08T07:27:47.891Z,995.94
2023-02-08T07:28:47.748Z,995.94
2023-02-08T07:29:47.716Z,995.94
2023-02-08T07:30:47.738Z,995.98
2023-02-08T07:31:47.759Z,996.02
2023-02-08T07:32:47.674Z,995.96
2023-02-08T07:33:47.671Z,995.97
2023-02-08T07:34:47.642Z,996.01
2023-02-08T07:35:47.634Z,995.96
2023-02-08T07:36:47.632Z,995.97
2023-02-08T07:37:47.611Z,995.93
2023-02-08T07:38:47.596Z,995.98
2023-02-08T07:39:47.583Z,995.98
2023-02-08T07:40:47.578Z,995.95
2023-02-08T07:41:47.561Z,995.96
2023-02-08T07:42:47.548Z,995.98
2023-02-08T07:43:47.537Z,996.00
2023-02-08T07:44:47.544Z,995.98
2023-02-08T07:45:47.520Z,995.96
2023-02-08T07:46:47.499Z,995.87
2023-02-08T07:47:47.505Z,995.94
2023-02-08T07:48:47.466Z,995.92
2023-02-08T07:49:47.691Z,995.93
2023-02-08T07:50:47.447Z,995.96
2023-02-08T07:51:47.430Z,995.96
2023-02-08T07:52:47.417Z,995.90
2023-02-08T07:53:47.409Z,995.97
2023-02-08T07:54:47.396Z,995.97
2023-02-08T07:55:47.382Z,996.03
2023-02-08T07:56:47.361Z,996.00
2023-02-08T07:57:47.375Z,995.99
2023-02-08T07:58:47.342Z,995.99
2023-02-08T07:59:47.330Z,995.96
2023-02-08T08:00:47.353Z,995.97
2023-02-08T08:01:47.360Z,995.99
2023-02-08T08:02:47.287Z,995.97
2023-02-08T08:03:47.276Z,996.06
2023-02-08T08:04:47.260Z,996.06
2023-02-08T08:05:47.251Z,996.02
2023-02-08T08:06:47.238Z,996.05
2023-02-08T08:07:47.224Z,996.04
2023-02-08T08:08:47.206Z,996.02
2023-02-08T08:09:47.203Z,995.97
2023-02-08T08:10:47.197Z,995.97
2023-02-08T08:11:47.177Z,995.99
2023-02-08T08:12:47.165Z,995.98
2023-02-08T08:13:47.150Z,995.95
2023-02-08T08:14:47.129Z,995.95
2023-02-08T08:15:47.118Z,995.94
2023-02-08T08:16:47.129Z,995.92
2023-02-08T08:17:47.087Z,995.93
2023-02-08T08:18:47.077Z,995.91
2023-02-08T08:19:47.071Z,995.89
2023-02-08T08:20:47.056Z,995.91
2023-02-08T08:21:47.044Z,995.87
2023-02-08T08:22:47.024Z,995.84
2023-02-08T08:23:47.012Z,995.89
2023-02-08T08:24:47.453Z,995.92
2023-02-08T08:25:46.992Z,995.86
2023-02-08T08:26:46.973Z,995.89
2023-02-08T08:27:46.959Z,995.87
2023-02-08T08:28:47.230Z,995.79
2023-02-08T08:29:46.938Z,995.83
2023-02-08T08:30:47.003Z,995.80
2023-02-08T08:31:46.969Z,995.77
2023-02-08T08:32:47.337Z,995.81
2023-02-08T08:33:46.923Z,995.72
2023-02-08T08:34:46.875Z,995.80
2023-02-08T08:35:46.861Z,995.87
2023-02-08T08:36:46.843Z,995.79
2023-02-08T08:37:46.824Z,995.80
2023-02-08T08:38:46.812Z,995.81
2023-02-08T08:39:46.800Z,995.80
2023-02-08T08:40:46.790Z,995.79
2023-02-08T08:41:46.775Z,995.78
2023-02-08T08:42:46.769Z,995.80
2023-02-08T08:43:46.767Z,995.79
2023-02-08T08:44:46.740Z,995.74
2023-02-08T08:45:46.728Z,995.75
2023-02-08T08:46:46.714Z,995.70
2023-02-08T08:47:46.958Z,995.68
2023-02-08T08:48:46.704Z,995.72
2023-02-08T08:49:46.674Z,995.64
2023-02-08T08:50:47.338Z,995.49
2023-02-08T08:51:48.651Z,995.62
2023-02-08T08:52:46.629Z,995.53
2023-02-08T08:53:46.645Z,995.55
2023-02-08T08:54:46.603Z,995.49
2023-02-08T08:55:46.592Z,995.54
2023-02-08T08:56:46.584Z,995.56
2023-02-08T08:57:46.569Z,995.51
2023-02-08T08:58:46.548Z,995.55
2023-02-08T08:59:46.545Z,995.48
2023-02-08T09:00:46.518Z,995.49
2023-02-08T09:01:46.567Z,995.46
2023-02-08T09:02:46.495Z,995.46
2023-02-08T09:03:46.478Z,995.44
2023-02-08T09:04:46.493Z,995.46
2023-02-08T09:05:46.453Z,995.46
2023-02-08T09:06:46.440Z,995.41
2023-02-08T09:07:46.435Z,995.41
2023-02-08T09:08:46.454Z,995.42
2023-02-08T09:09:46.403Z,995.45
2023-02-08T09:10:46.551Z,995.39
2023-02-08T09:11:46.724Z,995.43
2023-02-08T09:12:46.393Z,995.42
2023-02-08T09:13:46.349Z,995.39
2023-02-08T09:14:46.333Z,995.43
2023-02-08T09:15:46.410Z,995.39
2023-02-08T09:16:46.300Z,995.35
2023-02-08T09:17:46.291Z,995.38
2023-02-08T09:18:46.311Z,995.42
2023-02-08T09:19:46.262Z,995.38
2023-02-08T09:20:46.606Z,995.38
2023-02-08T09:21:46.233Z,995.34
2023-02-08T09:22:46.221Z,995.37
2023-02-08T09:23:46.207Z,995.28
2023-02-08T09:24:46.255Z,995.38
2023-02-08T09:25:46.179Z,995.33
2023-02-08T09:26:46.172Z,995.34
2023-02-08T09:27:46.158Z,995.34
2023-02-08T09:28:46.140Z,995.42
2023-02-08T09:29:46.126Z,995.43
2023-02-08T09:30:46.474Z,995.35
2023-02-08T09:31:46.363Z,995.35
2023-02-08T09:32:46.099Z,995.35
2023-02-08T09:33:46.072Z,995.36
2023-02-08T09:34:46.062Z,995.32
2023-02-08T09:35:46.867Z,995.35
2023-02-08T09:36:46.069Z,995.28
2023-02-08T09:37:46.018Z,995.22
2023-02-08T09:38:46.019Z,995.29
2023-02-08T09:39:46.253Z,995.23
2023-02-08T09:40:45.984Z,995.24
2023-02-08T09:41:45.969Z,995.20
2023-02-08T09:42:45.953Z,995.20
2023-02-08T09:43:45.940Z,995.23
2023-02-08T09:44:45.934Z,995.25
2023-02-08T09:45:59.073Z,995.17
2023-02-08T09:46:47.202Z,995.13
2023-02-08T09:47:45.893Z,995.27
2023-02-08T09:48:45.880Z,995.20
2023-02-08T09:49:45.867Z,995.19
2023-02-08T09:50:45.861Z,995.15
2023-02-08T09:51:45.981Z,995.16
2023-02-08T09:52:45.861Z,995.17
2023-02-08T09:53:45.825Z,995.10
2023-02-08T09:54:45.802Z,995.14
2023-02-08T09:55:45.785Z,995.13
2023-02-08T09:56:45.769Z,995.21
2023-02-08T09:57:45.761Z,995.16
2023-02-08T09:58:46.052Z,995.14
2023-02-08T09:59:45.735Z,995.17
2023-02-08T10:00:45.992Z,995.09
2023-02-08T10:01:45.708Z,995.08
2023-02-08T10:02:45.696Z,995.11
2023-02-08T10:03:45.676Z,995.14
2023-02-08T10:04:45.668Z,995.10
2023-02-08T10:05:45.647Z,995.09
2023-02-08T10:06:45.646Z,995.14
2023-02-08T10:07:45.628Z,995.05
2023-02-08T10:08:45.640Z,995.10
2023-02-08T10:09:45.605Z,995.07
2023-02-08T10:10:45.589Z,995.09
2023-02-08T10:11:45.665Z,995.12
2023-02-08T10:12:45.576Z,995.10
2023-02-08T10:13:45.547Z,995.07
2023-02-08T10:14:45.536Z,994.95
2023-02-08T10:15:45.525Z,994.97
2023-02-08T10:16:45.542Z,995.04
2023-02-08T10:17:45.541Z,994.94
2023-02-08T10:18:45.479Z,994.94
2023-02-08T10:19:45.460Z,995.00
2023-02-08T10:20:45.695Z,994.93
2023-02-08T10:21:45.433Z,994.99
2023-02-08T10:22:45.423Z,994.96
2023-02-08T10:23:45.406Z,994.95
2023-02-08T10:24:45.416Z,994.94
2023-02-08T10:25:45.406Z,994.84
2023-02-08T10:26:45.393Z,994.94
2023-02-08T10:27:45.367Z,994.91
2023-02-08T10:28:45.349Z,994.86
2023-02-08T10:29:45.778Z,994.94
2023-02-08T10:30:45.807Z,994.94
2023-02-08T10:31:45.383Z,994.96
2023-02-08T10:32:45.296Z,994.93
2023-02-08T10:33:45.280Z,995.03
2023-02-08T10:34:45.292Z,994.97
2023-02-08T10:35:45.643Z,994.98
2023-02-08T10:36:45.241Z,995.01
2023-02-08T10:37:45.230Z,994.99
2023-02-08T10:38:47.059Z,995.00
2023-02-08T10:39:45.196Z,994.99
2023-02-08T10:40:45.307Z,994.87
2023-02-08T10:41:45.174Z,994.92
2023-02-08T10:42:45.157Z,994.85
2023-02-08T10:43:45.140Z,994.86
2023-02-08T10:44:46.949Z,994.92
2023-02-08T10:45:45.442Z,994.86
2023-02-08T10:46:45.099Z,994.79
2023-02-08T10:47:45.094Z,994.78
2023-02-08T10:48:45.089Z,994.77
2023-02-08T10:49:45.061Z,994.78
2023-02-08T10:50:45.051Z,994.68
2023-02-08T10:51:45.102Z,994.72
2023-02-08T10:52:45.025Z,994.65
2023-02-08T10:53:45.009Z,994.72
2023-02-08T10:54:45.031Z,994.65
2023-02-08T10:55:45.331Z,994.69
2023-02-08T10:56:44.990Z,994.66
2023-02-08T10:57:44.946Z,994.67
2023-02-08T10:58:44.936Z,994.68
2023-02-08T10:59:45.070Z,994.64
2023-02-08T11:00:44.939Z,994.56
2023-02-08T11:01:44.890Z,994.57
2023-02-08T11:02:44.882Z,994.57
2023-02-08T11:03:44.863Z,994.61
2023-02-08T11:04:44.859Z,994.60
2023-02-08T11:05:45.081Z,994.57
2023-02-08T11:06:44.822Z,994.49
2023-02-08T11:07:44.810Z,994.39
2023-02-08T11:08:44.806Z,994.29
2023-02-08T11:09:44.787Z,994.24
2023-02-08T11:10:44.776Z,994.24
2023-02-08T11:11:44.761Z,994.24
2023-02-08T11:12:44.767Z,994.22
2023-02-08T11:13:44.736Z,994.24
2023-02-08T11:14:47.456Z,994.23
2023-02-08T11:15:45.004Z,994.21
2023-02-08T11:16:44.705Z,994.32
2023-02-08T11:17:44.680Z,994.32
2023-02-08T11:18:44.669Z,994.33
2023-02-08T11:19:44.651Z,994.20
2023-02-08T11:20:44.640Z,994.24
2023-02-08T11:21:44.621Z,994.25
2023-02-08T11:22:44.612Z,994.27
2023-02-08T11:23:44.598Z,994.30
2023-02-08T11:24:44.582Z,994.27
2023-02-08T11:25:44.813Z,994.17
2023-02-08T11:26:44.558Z,994.20
2023-02-08T11:27:44.546Z,994.15
2023-02-08T11:28:44.549Z,994.19
2023-02-08T11:29:44.516Z,994.17
2023-02-08T11:30:44.564Z,994.20
2023-02-08T11:31:44.579Z,994.08
2023-02-08T11:32:44.480Z,994.09
2023-02-08T11:33:44.464Z,994.03
2023-02-08T11:34:44.652Z,993.97
2023-02-08T11:35:44.779Z,994.06
2023-02-08T11:36:44.444Z,993.97
2023-02-08T11:37:44.410Z,994.05
2023-02-08T11:38:44.398Z,993.91
2023-02-08T11:39:44.390Z,993.82
2023-02-08T11:40:44.372Z,993.83
2023-02-08T11:41:44.357Z,993.71
2023-02-08T11:42:44.362Z,993.61
2023-02-08T11:43:44.330Z,993.62
2023-02-08T11:44:44.343Z,993.63
2023-02-08T11:45:44.687Z,993.73
2023-02-08T11:46:44.291Z,993.74
2023-02-08T11:47:44.279Z,993.61
2023-02-08T11:48:44.265Z,993.60
2023-02-08T11:49:44.244Z,993.61
2023-02-08T11:50:44.236Z,993.65
2023-02-08T11:51:44.217Z,993.63
2023-02-08T11:52:44.219Z,993.58
2023-02-08T11:53:44.331Z,993.49
2023-02-08T11:54:44.185Z,993.36
2023-02-08T11:55:44.625Z,993.44
2023-02-08T11:56:44.157Z,993.40
2023-02-08T11:57:44.141Z,993.46
2023-02-08T11:58:44.131Z,993.36
2023-02-08T11:59:44.126Z,993.39
2023-02-08T12:00:44.121Z,993.30
2023-02-08T12:01:44.144Z,993.37
2023-02-08T12:02:44.182Z,993.28
2023-02-08T12:03:44.087Z,993.26
2023-02-08T12:04:44.050Z,993.18
2023-02-08T12:05:44.398Z,993.10
2023-02-08T12:06:44.024Z,993.05
2023-02-08T12:07:44.005Z,992.97
2023-02-08T12:08:43.987Z,992.99
2023-02-08T12:09:44.010Z,993.02
2023-02-08T12:10:43.964Z,992.99
2023-02-08T12:11:43.953Z,992.97
2023-02-08T12:12:43.935Z,992.86
2023-02-08T12:13:43.916Z,992.93
2023-02-08T12:14:43.907Z,992.94
2023-02-08T12:15:57.544Z,992.92
2023-02-08T12:16:44.937Z,992.82
2023-02-08T12:17:43.891Z,992.73
2023-02-08T12:18:43.853Z,992.78
2023-02-08T12:19:43.841Z,992.83
2023-02-08T12:20:43.846Z,992.83
2023-02-08T12:21:43.813Z,992.80
2023-02-08T12:22:43.808Z,992.77
2023-02-08T12:23:43.784Z,992.75
2023-02-08T12:24:43.780Z,992.77
2023-02-08T12:25:43.969Z,992.76
2023-02-08T12:26:43.740Z,992.74
2023-02-08T12:27:43.729Z,992.63
2023-02-08T12:28:43.726Z,992.67